sensor_id;sensor_type;location;lat;lon;timestamp;P1;durP1;ratioP1;P2;durP2;ratioP2
19940;SDS011;10132;50.864;5.176;2023-04-15T00:00:07;4.97;;;2.60;;
19940;SDS011;10132;50.864;5.176;2023-04-15T00:02:13;6.53;;;2.90;;
19940;SDS011;10132;50.864;5.176;2023-04-15T00:04:17;6.90;;;3.30;;
19940;SDS011;10132;50.864;5.176;2023-04-15T00:06:19;7.03;;;3.03;;
19940;SDS011;10132;50.864;5.176;2023-04-15T00:08:21;4.97;;;2.63;;
19940;SDS011;10132;50.864;5.176;2023-04-15T00:10:23;5.30;;;3.13;;
19940;SDS011;10132;50.864;5.176;2023-04-15T00:12:27;6.93;;;3.13;;
19940;SDS011;10132;50.864;5.176;2023-04-15T00:14:29;8.30;;;3.00;;
19940;SDS011;10132;50.864;5.176;2023-04-15T00:16:31;4.43;;;2.77;;
19940;SDS011;10132;50.864;5.176;2023-04-15T00:18:33;5.37;;;3.20;;
19940;SDS011;10132;50.864;5.176;2023-04-15T00:20:35;6.23;;;3.00;;
19940;SDS011;10132;50.864;5.176;2023-04-15T00:22:37;4.27;;;3.10;;
19940;SDS011;10132;50.864;5.176;2023-04-15T00:24:39;5.10;;;2.73;;
19940;SDS011;10132;50.864;5.176;2023-04-15T00:26:42;6.00;;;3.30;;
19940;SDS011;10132;50.864;5.176;2023-04-15T00:28:45;4.77;;;3.00;;
19940;SDS011;10132;50.864;5.176;2023-04-15T00:30:47;3.77;;;2.77;;
19940;SDS011;10132;50.864;5.176;2023-04-15T00:32:49;4.10;;;2.47;;
19940;SDS011;10132;50.864;5.176;2023-04-15T00:34:51;4.83;;;2.80;;
19940;SDS011;10132;50.864;5.176;2023-04-15T00:36:53;4.93;;;2.80;;
19940;SDS011;10132;50.864;5.176;2023-04-15T00:38:55;7.67;;;3.40;;
19940;SDS011;10132;50.864;5.176;2023-04-15T00:40:57;6.20;;;3.10;;
19940;SDS011;10132;50.864;5.176;2023-04-15T00:42:59;3.73;;;2.97;;
19940;SDS011;10132;50.864;5.176;2023-04-15T00:45:05;4.40;;;2.67;;
19940;SDS011;10132;50.864;5.176;2023-04-15T00:47:07;3.83;;;2.63;;
19940;SDS011;10132;50.864;5.176;2023-04-15T00:49:10;5.87;;;2.40;;
19940;SDS011;10132;50.864;5.176;2023-04-15T00:51:13;4.27;;;2.83;;
19940;SDS011;10132;50.864;5.176;2023-04-15T00:53:15;3.93;;;2.43;;
19940;SDS011;10132;50.864;5.176;2023-04-15T00:55:16;5.63;;;2.80;;
19940;SDS011;10132;50.864;5.176;2023-04-15T00:57:19;6.40;;;2.80;;
19940;SDS011;10132;50.864;5.176;2023-04-15T00:59:22;5.03;;;2.70;;
19940;SDS011;10132;50.864;5.176;2023-04-15T01:01:26;5.03;;;3.10;;
19940;SDS011;10132;50.864;5.176;2023-04-15T01:03:28;3.87;;;2.90;;
19940;SDS011;10132;50.864;5.176;2023-04-15T01:05:31;4.30;;;2.50;;
19940;SDS011;10132;50.864;5.176;2023-04-15T01:07:33;5.23;;;2.80;;
19940;SDS011;10132;50.864;5.176;2023-04-15T01:09:35;2.67;;;2.40;;
19940;SDS011;10132;50.864;5.176;2023-04-15T01:11:38;8.30;;;2.50;;
19940;SDS011;10132;50.864;5.176;2023-04-15T01:13:40;4.17;;;2.50;;
19940;SDS011;10132;50.864;5.176;2023-04-15T01:15:42;6.50;;;2.33;;
19940;SDS011;10132;50.864;5.176;2023-04-15T01:17:45;7.03;;;3.40;;
19940;SDS011;10132;50.864;5.176;2023-04-15T01:19:47;4.10;;;2.43;;
19940;SDS011;10132;50.864;5.176;2023-04-15T01:21:49;6.70;;;2.70;;
19940;SDS011;10132;50.864;5.176;2023-04-15T01:23:52;4.87;;;2.87;;
19940;SDS011;10132;50.864;5.176;2023-04-15T01:25:57;4.10;;;2.70;;
19940;SDS011;10132;50.864;5.176;2023-04-15T01:27:59;4.63;;;2.93;;
19940;SDS011;10132;50.864;5.176;2023-04-15T01:30:02;4.77;;;2.77;;
19940;SDS011;10132;50.864;5.176;2023-04-15T01:32:04;4.03;;;2.83;;
19940;SDS011;10132;50.864;5.176;2023-04-15T01:34:06;3.80;;;2.47;;
19940;SDS011;10132;50.864;5.176;2023-04-15T01:36:08;4.37;;;2.67;;
19940;SDS011;10132;50.864;5.176;2023-04-15T01:38:11;3.57;;;2.47;;
19940;SDS011;10132;50.864;5.176;2023-04-15T01:40:13;4.47;;;2.60;;
19940;SDS011;10132;50.864;5.176;2023-04-15T01:42:17;3.27;;;2.50;;
19940;SDS011;10132;50.864;5.176;2023-04-15T01:44:18;3.77;;;2.50;;
19940;SDS011;10132;50.864;5.176;2023-04-15T01:46:21;6.07;;;2.70;;
19940;SDS011;10132;50.864;5.176;2023-04-15T01:48:23;4.20;;;2.47;;
19940;SDS011;10132;50.864;5.176;2023-04-15T01:50:25;4.27;;;2.60;;
19940;SDS011;10132;50.864;5.176;2023-04-15T01:52:27;4.77;;;2.50;;
19940;SDS011;10132;50.864;5.176;2023-04-15T01:54:29;4.30;;;2.53;;
19940;SDS011;10132;50.864;5.176;2023-04-15T01:56:31;4.37;;;2.60;;
19940;SDS011;10132;50.864;5.176;2023-04-15T01:58:34;4.57;;;2.70;;
19940;SDS011;10132;50.864;5.176;2023-04-15T02:00:36;5.90;;;2.43;;
19940;SDS011;10132;50.864;5.176;2023-04-15T02:02:38;4.50;;;2.60;;
19940;SDS011;10132;50.864;5.176;2023-04-15T02:04:40;5.33;;;2.70;;
19940;SDS011;10132;50.864;5.176;2023-04-15T02:06:42;5.57;;;2.53;;
19940;SDS011;10132;50.864;5.176;2023-04-15T02:08:45;5.07;;;2.80;;
19940;SDS011;10132;50.864;5.176;2023-04-15T02:10:47;7.53;;;2.80;;
19940;SDS011;10132;50.864;5.176;2023-04-15T02:12:48;5.50;;;2.80;;
19940;SDS011;10132;50.864;5.176;2023-04-15T02:14:52;3.23;;;2.30;;
19940;SDS011;10132;50.864;5.176;2023-04-15T02:16:54;6.17;;;2.70;;
19940;SDS011;10132;50.864;5.176;2023-04-15T02:18:56;3.80;;;2.40;;
19940;SDS011;10132;50.864;5.176;2023-04-15T02:20:59;4.90;;;2.40;;
19940;SDS011;10132;50.864;5.176;2023-04-15T02:23:01;4.07;;;2.50;;
19940;SDS011;10132;50.864;5.176;2023-04-15T02:25:06;6.47;;;2.47;;
19940;SDS011;10132;50.864;5.176;2023-04-15T02:27:09;8.53;;;2.93;;
19940;SDS011;10132;50.864;5.176;2023-04-15T02:29:15;6.50;;;2.80;;
19940;SDS011;10132;50.864;5.176;2023-04-15T02:31:18;5.30;;;2.60;;
19940;SDS011;10132;50.864;5.176;2023-04-15T02:33:21;4.70;;;2.60;;
19940;SDS011;10132;50.864;5.176;2023-04-15T02:35:23;3.90;;;2.13;;
19940;SDS011;10132;50.864;5.176;2023-04-15T02:37:25;4.13;;;2.40;;
19940;SDS011;10132;50.864;5.176;2023-04-15T02:39:29;4.47;;;2.43;;
19940;SDS011;10132;50.864;5.176;2023-04-15T02:41:31;4.27;;;2.33;;
19940;SDS011;10132;50.864;5.176;2023-04-15T02:43:34;4.50;;;2.50;;
19940;SDS011;10132;50.864;5.176;2023-04-15T02:45:36;5.73;;;2.50;;
19940;SDS011;10132;50.864;5.176;2023-04-15T02:47:39;5.03;;;2.30;;
19940;SDS011;10132;50.864;5.176;2023-04-15T02:49:42;3.43;;;2.33;;
19940;SDS011;10132;50.864;5.176;2023-04-15T02:51:44;3.70;;;2.37;;
19940;SDS011;10132;50.864;5.176;2023-04-15T02:53:48;5.67;;;2.53;;
19940;SDS011;10132;50.864;5.176;2023-04-15T02:55:50;6.03;;;2.97;;
19940;SDS011;10132;50.864;5.176;2023-04-15T02:57:52;6.67;;;2.57;;
19940;SDS011;10132;50.864;5.176;2023-04-15T02:59:54;4.63;;;2.37;;
19940;SDS011;10132;50.864;5.176;2023-04-15T03:01:56;4.73;;;2.80;;
19940;SDS011;10132;50.864;5.176;2023-04-15T03:04:01;4.43;;;2.47;;
19940;SDS011;10132;50.864;5.176;2023-04-15T03:06:03;4.43;;;2.40;;
19940;SDS011;10132;50.864;5.176;2023-04-15T03:08:05;3.90;;;2.30;;
19940;SDS011;10132;50.864;5.176;2023-04-15T03:10:07;5.20;;;2.50;;
19940;SDS011;10132;50.864;5.176;2023-04-15T03:12:10;4.97;;;2.40;;
19940;SDS011;10132;50.864;5.176;2023-04-15T03:14:12;4.77;;;2.43;;
19940;SDS011;10132;50.864;5.176;2023-04-15T03:16:14;6.87;;;2.67;;
19940;SDS011;10132;50.864;5.176;2023-04-15T03:18:16;5.57;;;2.80;;
19940;SDS011;10132;50.864;5.176;2023-04-15T03:20:20;5.73;;;2.90;;
19940;SDS011;10132;50.864;5.176;2023-04-15T03:22:22;5.27;;;3.03;;
19940;SDS011;10132;50.864;5.176;2023-04-15T03:24:24;5.50;;;2.63;;
19940;SDS011;10132;50.864;5.176;2023-04-15T03:26:28;4.93;;;2.97;;
19940;SDS011;10132;50.864;5.176;2023-04-15T03:28:31;4.43;;;2.67;;
19940;SDS011;10132;50.864;5.176;2023-04-15T03:30:33;5.33;;;2.63;;
19940;SDS011;10132;50.864;5.176;2023-04-15T03:32:35;6.53;;;2.80;;
19940;SDS011;10132;50.864;5.176;2023-04-15T03:34:37;5.07;;;2.60;;
19940;SDS011;10132;50.864;5.176;2023-04-15T03:36:40;4.87;;;2.77;;
19940;SDS011;10132;50.864;5.176;2023-04-15T03:38:42;6.00;;;3.07;;
19940;SDS011;10132;50.864;5.176;2023-04-15T03:40:46;3.90;;;2.87;;
19940;SDS011;10132;50.864;5.176;2023-04-15T03:42:48;4.43;;;2.90;;
19940;SDS011;10132;50.864;5.176;2023-04-15T03:44:50;5.77;;;2.47;;
19940;SDS011;10132;50.864;5.176;2023-04-15T03:46:52;5.33;;;3.00;;
19940;SDS011;10132;50.864;5.176;2023-04-15T03:48:54;6.53;;;3.17;;
19940;SDS011;10132;50.864;5.176;2023-04-15T03:50:56;8.30;;;3.23;;
19940;SDS011;10132;50.864;5.176;2023-04-15T03:52:59;5.07;;;3.00;;
19940;SDS011;10132;50.864;5.176;2023-04-15T03:55:01;5.07;;;2.80;;
19940;SDS011;10132;50.864;5.176;2023-04-15T03:57:03;5.97;;;3.43;;
19940;SDS011;10132;50.864;5.176;2023-04-15T03:59:06;6.17;;;2.90;;
19940;SDS011;10132;50.864;5.176;2023-04-15T04:01:08;5.93;;;3.23;;
19940;SDS011;10132;50.864;5.176;2023-04-15T04:03:09;7.30;;;3.03;;
19940;SDS011;10132;50.864;5.176;2023-04-15T04:05:11;5.87;;;3.17;;
19940;SDS011;10132;50.864;5.176;2023-04-15T04:07:14;22.07;;;11.17;;
19940;SDS011;10132;50.864;5.176;2023-04-15T04:09:17;9.63;;;4.30;;
19940;SDS011;10132;50.864;5.176;2023-04-15T04:11:19;6.80;;;3.60;;
19940;SDS011;10132;50.864;5.176;2023-04-15T04:13:21;7.40;;;3.70;;
19940;SDS011;10132;50.864;5.176;2023-04-15T04:15:23;9.83;;;5.03;;
19940;SDS011;10132;50.864;5.176;2023-04-15T04:17:26;14.90;;;6.67;;
19940;SDS011;10132;50.864;5.176;2023-04-15T04:19:28;15.00;;;6.60;;
19940;SDS011;10132;50.864;5.176;2023-04-15T04:21:30;22.03;;;8.57;;
19940;SDS011;10132;50.864;5.176;2023-04-15T04:23:33;21.83;;;10.50;;
19940;SDS011;10132;50.864;5.176;2023-04-15T04:25:36;18.00;;;8.27;;
19940;SDS011;10132;50.864;5.176;2023-04-15T04:27:38;17.73;;;7.17;;
19940;SDS011;10132;50.864;5.176;2023-04-15T04:29:40;13.20;;;5.63;;
19940;SDS011;10132;50.864;5.176;2023-04-15T04:31:42;13.87;;;5.37;;
19940;SDS011;10132;50.864;5.176;2023-04-15T04:33:44;10.37;;;4.83;;
19940;SDS011;10132;50.864;5.176;2023-04-15T04:35:46;10.00;;;4.40;;
19940;SDS011;10132;50.864;5.176;2023-04-15T04:37:47;8.53;;;4.07;;
19940;SDS011;10132;50.864;5.176;2023-04-15T04:39:49;8.10;;;3.50;;
19940;SDS011;10132;50.864;5.176;2023-04-15T04:41:53;5.87;;;3.40;;
19940;SDS011;10132;50.864;5.176;2023-04-15T04:43:55;6.93;;;3.37;;
19940;SDS011;10132;50.864;5.176;2023-04-15T04:45:57;4.90;;;3.20;;
19940;SDS011;10132;50.864;5.176;2023-04-15T04:47:58;6.27;;;3.13;;
19940;SDS011;10132;50.864;5.176;2023-04-15T04:50:00;5.17;;;3.03;;
19940;SDS011;10132;50.864;5.176;2023-04-15T04:52:02;5.03;;;2.57;;
19940;SDS011;10132;50.864;5.176;2023-04-15T04:54:04;7.53;;;3.10;;
19940;SDS011;10132;50.864;5.176;2023-04-15T04:56:06;4.10;;;2.90;;
19940;SDS011;10132;50.864;5.176;2023-04-15T04:58:10;7.13;;;3.00;;
19940;SDS011;10132;50.864;5.176;2023-04-15T05:00:12;6.07;;;2.90;;
19940;SDS011;10132;50.864;5.176;2023-04-15T05:02:14;5.07;;;2.70;;
19940;SDS011;10132;50.864;5.176;2023-04-15T05:04:16;5.97;;;3.17;;
19940;SDS011;10132;50.864;5.176;2023-04-15T05:06:18;10.97;;;3.43;;
19940;SDS011;10132;50.864;5.176;2023-04-15T05:08:20;6.53;;;2.90;;
19940;SDS011;10132;50.864;5.176;2023-04-15T05:10:22;4.10;;;2.80;;
19940;SDS011;10132;50.864;5.176;2023-04-15T05:12:24;5.57;;;2.80;;
19940;SDS011;10132;50.864;5.176;2023-04-15T05:14:27;6.07;;;2.57;;
19940;SDS011;10132;50.864;5.176;2023-04-15T05:16:29;4.00;;;2.50;;
19940;SDS011;10132;50.864;5.176;2023-04-15T05:18:31;5.13;;;3.07;;
19940;SDS011;10132;50.864;5.176;2023-04-15T05:20:33;4.53;;;3.10;;
19940;SDS011;10132;50.864;5.176;2023-04-15T05:22:35;5.77;;;2.77;;
19940;SDS011;10132;50.864;5.176;2023-04-15T05:24:37;7.47;;;2.90;;
19940;SDS011;10132;50.864;5.176;2023-04-15T05:26:39;5.50;;;3.47;;
19940;SDS011;10132;50.864;5.176;2023-04-15T05:28:41;8.20;;;3.30;;
19940;SDS011;10132;50.864;5.176;2023-04-15T05:30:45;6.50;;;3.30;;
19940;SDS011;10132;50.864;5.176;2023-04-15T05:32:47;4.60;;;2.80;;
19940;SDS011;10132;50.864;5.176;2023-04-15T05:34:49;4.10;;;3.13;;
19940;SDS011;10132;50.864;5.176;2023-04-15T05:36:51;4.73;;;3.10;;
19940;SDS011;10132;50.864;5.176;2023-04-15T05:38:53;6.00;;;3.10;;
19940;SDS011;10132;50.864;5.176;2023-04-15T05:40:55;7.00;;;3.03;;
19940;SDS011;10132;50.864;5.176;2023-04-15T05:42:57;7.07;;;3.13;;
19940;SDS011;10132;50.864;5.176;2023-04-15T05:44:59;8.63;;;3.53;;
19940;SDS011;10132;50.864;5.176;2023-04-15T05:47:05;6.37;;;3.23;;
19940;SDS011;10132;50.864;5.176;2023-04-15T05:49:08;6.10;;;3.53;;
19940;SDS011;10132;50.864;5.176;2023-04-15T05:51:11;7.07;;;3.20;;
19940;SDS011;10132;50.864;5.176;2023-04-15T05:53:13;5.37;;;3.50;;
19940;SDS011;10132;50.864;5.176;2023-04-15T05:55:15;5.57;;;3.90;;
19940;SDS011;10132;50.864;5.176;2023-04-15T05:57:17;5.27;;;3.20;;
19940;SDS011;10132;50.864;5.176;2023-04-15T05:59:18;6.53;;;3.57;;
19940;SDS011;10132;50.864;5.176;2023-04-15T06:01:20;8.03;;;3.70;;
19940;SDS011;10132;50.864;5.176;2023-04-15T06:03:24;4.70;;;3.47;;
19940;SDS011;10132;50.864;5.176;2023-04-15T06:05:26;5.57;;;3.80;;
19940;SDS011;10132;50.864;5.176;2023-04-15T06:07:28;9.53;;;3.73;;
19940;SDS011;10132;50.864;5.176;2023-04-15T06:09:30;6.67;;;3.73;;
19940;SDS011;10132;50.864;5.176;2023-04-15T06:11:32;5.47;;;3.70;;
19940;SDS011;10132;50.864;5.176;2023-04-15T06:13:34;8.77;;;4.07;;
19940;SDS011;10132;50.864;5.176;2023-04-15T06:15:36;8.20;;;3.40;;
19940;SDS011;10132;50.864;5.176;2023-04-15T06:17:38;9.67;;;3.43;;
19940;SDS011;10132;50.864;5.176;2023-04-15T06:19:42;7.60;;;3.50;;
19940;SDS011;10132;50.864;5.176;2023-04-15T06:21:44;8.20;;;3.77;;
19940;SDS011;10132;50.864;5.176;2023-04-15T06:23:46;6.00;;;3.50;;
19940;SDS011;10132;50.864;5.176;2023-04-15T06:25:48;8.43;;;4.03;;
19940;SDS011;10132;50.864;5.176;2023-04-15T06:27:50;7.87;;;3.50;;
19940;SDS011;10132;50.864;5.176;2023-04-15T06:29:52;8.17;;;3.53;;
19940;SDS011;10132;50.864;5.176;2023-04-15T06:31:54;7.90;;;3.60;;
19940;SDS011;10132;50.864;5.176;2023-04-15T06:33:56;6.17;;;3.80;;
19940;SDS011;10132;50.864;5.176;2023-04-15T06:35:59;8.17;;;3.60;;
19940;SDS011;10132;50.864;5.176;2023-04-15T06:38:01;12.50;;;4.10;;
19940;SDS011;10132;50.864;5.176;2023-04-15T06:40:03;7.30;;;3.87;;
19940;SDS011;10132;50.864;5.176;2023-04-15T06:42:07;7.73;;;4.17;;
19940;SDS011;10132;50.864;5.176;2023-04-15T06:44:11;8.80;;;4.40;;
19940;SDS011;10132;50.864;5.176;2023-04-15T06:46:13;8.70;;;4.37;;
19940;SDS011;10132;50.864;5.176;2023-04-15T06:48:14;10.10;;;4.80;;
19940;SDS011;10132;50.864;5.176;2023-04-15T06:50:17;10.73;;;5.10;;
19940;SDS011;10132;50.864;5.176;2023-04-15T06:52:20;8.50;;;5.20;;
19940;SDS011;10132;50.864;5.176;2023-04-15T06:54:22;9.80;;;5.37;;
19940;SDS011;10132;50.864;5.176;2023-04-15T06:56:24;11.17;;;5.37;;
19940;SDS011;10132;50.864;5.176;2023-04-15T06:58:26;11.57;;;5.37;;
19940;SDS011;10132;50.864;5.176;2023-04-15T07:00:28;13.13;;;5.67;;
19940;SDS011;10132;50.864;5.176;2023-04-15T07:02:29;9.93;;;5.73;;
19940;SDS011;10132;50.864;5.176;2023-04-15T07:04:31;11.17;;;5.90;;
19940;SDS011;10132;50.864;5.176;2023-04-15T07:06:33;11.43;;;6.50;;
19940;SDS011;10132;50.864;5.176;2023-04-15T07:08:37;10.70;;;6.53;;
19940;SDS011;10132;50.864;5.176;2023-04-15T07:10:39;11.53;;;6.47;;
19940;SDS011;10132;50.864;5.176;2023-04-15T07:12:41;9.93;;;6.17;;
19940;SDS011;10132;50.864;5.176;2023-04-15T07:14:43;11.67;;;6.20;;
19940;SDS011;10132;50.864;5.176;2023-04-15T07:16:44;11.63;;;6.70;;
19940;SDS011;10132;50.864;5.176;2023-04-15T07:18:47;10.57;;;6.50;;
19940;SDS011;10132;50.864;5.176;2023-04-15T07:20:49;12.10;;;6.57;;
19940;SDS011;10132;50.864;5.176;2023-04-15T07:22:51;10.67;;;6.50;;
19940;SDS011;10132;50.864;5.176;2023-04-15T07:24:54;11.43;;;6.67;;
19940;SDS011;10132;50.864;5.176;2023-04-15T07:26:56;9.13;;;6.17;;
19940;SDS011;10132;50.864;5.176;2023-04-15T07:28:58;10.43;;;6.30;;
19940;SDS011;10132;50.864;5.176;2023-04-15T07:31:00;9.03;;;6.10;;
19940;SDS011;10132;50.864;5.176;2023-04-15T07:33:02;12.93;;;6.90;;
19940;SDS011;10132;50.864;5.176;2023-04-15T07:35:04;10.90;;;5.47;;
19940;SDS011;10132;50.864;5.176;2023-04-15T07:37:07;9.53;;;5.90;;
19940;SDS011;10132;50.864;5.176;2023-04-15T07:39:09;9.37;;;5.80;;
19940;SDS011;10132;50.864;5.176;2023-04-15T07:41:12;12.20;;;6.17;;
19940;SDS011;10132;50.864;5.176;2023-04-15T07:43:14;9.80;;;5.80;;
19940;SDS011;10132;50.864;5.176;2023-04-15T07:45:18;10.33;;;5.63;;
19940;SDS011;10132;50.864;5.176;2023-04-15T07:47:20;8.33;;;5.33;;
19940;SDS011;10132;50.864;5.176;2023-04-15T07:49:22;10.03;;;5.47;;
19940;SDS011;10132;50.864;5.176;2023-04-15T07:51:24;8.70;;;5.43;;
19940;SDS011;10132;50.864;5.176;2023-04-15T07:53:26;9.50;;;5.90;;
19940;SDS011;10132;50.864;5.176;2023-04-15T07:55:28;8.87;;;5.20;;
19940;SDS011;10132;50.864;5.176;2023-04-15T07:57:31;9.70;;;5.10;;
19940;SDS011;10132;50.864;5.176;2023-04-15T07:59:33;10.33;;;5.03;;
19940;SDS011;10132;50.864;5.176;2023-04-15T08:01:35;8.40;;;5.00;;
19940;SDS011;10132;50.864;5.176;2023-04-15T08:03:38;9.93;;;5.03;;
19940;SDS011;10132;50.864;5.176;2023-04-15T08:05:40;10.10;;;5.03;;
19940;SDS011;10132;50.864;5.176;2023-04-15T08:07:42;7.37;;;4.70;;
19940;SDS011;10132;50.864;5.176;2023-04-15T08:09:44;7.67;;;4.53;;
19940;SDS011;10132;50.864;5.176;2023-04-15T08:11:47;11.93;;;4.93;;
19940;SDS011;10132;50.864;5.176;2023-04-15T08:13:51;9.00;;;5.30;;
19940;SDS011;10132;50.864;5.176;2023-04-15T08:18:19;9.77;;;4.70;;
19940;SDS011;10132;50.864;5.176;2023-04-15T08:20:21;10.00;;;4.53;;
19940;SDS011;10132;50.864;5.176;2023-04-15T08:22:23;11.63;;;4.90;;
19940;SDS011;10132;50.864;5.176;2023-04-15T08:24:25;7.83;;;4.20;;
19940;SDS011;10132;50.864;5.176;2023-04-15T08:26:27;7.53;;;4.20;;
19940;SDS011;10132;50.864;5.176;2023-04-15T08:28:29;8.70;;;4.60;;
19940;SDS011;10132;50.864;5.176;2023-04-15T08:30:32;8.77;;;5.07;;
19940;SDS011;10132;50.864;5.176;2023-04-15T08:32:34;8.70;;;4.57;;
19940;SDS011;10132;50.864;5.176;2023-04-15T08:34:36;7.30;;;5.30;;
19940;SDS011;10132;50.864;5.176;2023-04-15T08:36:38;7.03;;;4.97;;
19940;SDS011;10132;50.864;5.176;2023-04-15T08:38:40;7.13;;;5.17;;
19940;SDS011;10132;50.864;5.176;2023-04-15T08:40:43;6.37;;;5.53;;
19940;SDS011;10132;50.864;5.176;2023-04-15T08:42:47;7.03;;;5.47;;
19940;SDS011;10132;50.864;5.176;2023-04-15T08:44:51;9.70;;;5.27;;
19940;SDS011;10132;50.864;5.176;2023-04-15T08:46:56;9.30;;;5.80;;
19940;SDS011;10132;50.864;5.176;2023-04-15T08:49:03;8.97;;;6.07;;
19940;SDS011;10132;50.864;5.176;2023-04-15T08:51:06;7.67;;;5.90;;
19940;SDS011;10132;50.864;5.176;2023-04-15T08:53:08;10.80;;;7.13;;
19940;SDS011;10132;50.864;5.176;2023-04-15T08:55:11;9.17;;;7.70;;
19940;SDS011;10132;50.864;5.176;2023-04-15T08:57:14;10.43;;;7.43;;
19940;SDS011;10132;50.864;5.176;2023-04-15T08:59:17;9.07;;;7.67;;
19940;SDS011;10132;50.864;5.176;2023-04-15T09:01:20;15.33;;;7.63;;
19940;SDS011;10132;50.864;5.176;2023-04-15T09:03:24;9.73;;;7.57;;
19940;SDS011;10132;50.864;5.176;2023-04-15T09:05:26;10.00;;;7.90;;
19940;SDS011;10132;50.864;5.176;2023-04-15T09:07:32;8.93;;;8.03;;
19940;SDS011;10132;50.864;5.176;2023-04-15T09:09:34;10.27;;;8.43;;
19940;SDS011;10132;50.864;5.176;2023-04-15T09:11:39;13.13;;;7.87;;
19940;SDS011;10132;50.864;5.176;2023-04-15T09:13:41;9.53;;;7.77;;
19940;SDS011;10132;50.864;5.176;2023-04-15T09:15:43;8.90;;;7.57;;
19940;SDS011;10132;50.864;5.176;2023-04-15T09:17:45;8.23;;;7.40;;
19940;SDS011;10132;50.864;5.176;2023-04-15T09:19:49;10.30;;;7.03;;
19940;SDS011;10132;50.864;5.176;2023-04-15T09:22:07;8.20;;;6.88;;
19940;SDS011;10132;50.864;5.176;2023-04-15T09:24:09;7.60;;;6.80;;
19940;SDS011;10132;50.864;5.176;2023-04-15T09:26:11;6.75;;;6.05;;
19940;SDS011;10132;50.864;5.176;2023-04-15T09:28:22;8.18;;;6.28;;
19940;SDS011;10132;50.864;5.176;2023-04-15T09:30:26;10.10;;;5.73;;
19940;SDS011;10132;50.864;5.176;2023-04-15T09:32:29;6.67;;;5.77;;
19940;SDS011;10132;50.864;5.176;2023-04-15T09:34:34;6.30;;;5.43;;
19940;SDS011;10132;50.864;5.176;2023-04-15T09:36:52;7.45;;;5.20;;
19940;SDS011;10132;50.864;5.176;2023-04-15T09:38:56;6.20;;;5.17;;
19940;SDS011;10132;50.864;5.176;2023-04-15T09:40:59;5.97;;;4.90;;
19940;SDS011;10132;50.864;5.176;2023-04-15T09:43:01;5.53;;;4.25;;
19940;SDS011;10132;50.864;5.176;2023-04-15T09:45:07;7.45;;;4.50;;
19940;SDS011;10132;50.864;5.176;2023-04-15T09:47:11;8.77;;;5.40;;
19940;SDS011;10132;50.864;5.176;2023-04-15T09:49:28;9.05;;;6.50;;
19940;SDS011;10132;50.864;5.176;2023-04-15T09:51:33;7.70;;;5.80;;
19940;SDS011;10132;50.864;5.176;2023-04-15T09:53:36;7.15;;;5.25;;
19940;SDS011;10132;50.864;5.176;2023-04-15T09:55:38;5.97;;;4.50;;
19940;SDS011;10132;50.864;5.176;2023-04-15T09:57:44;5.55;;;4.95;;
19940;SDS011;10132;50.864;5.176;2023-04-15T09:59:47;7.35;;;5.10;;
19940;SDS011;10132;50.864;5.176;2023-04-15T10:01:49;6.97;;;5.20;;
19940;SDS011;10132;50.864;5.176;2023-04-15T10:03:51;7.03;;;5.55;;
19940;SDS011;10132;50.864;5.176;2023-04-15T10:05:55;7.97;;;5.55;;
19940;SDS011;10132;50.864;5.176;2023-04-15T10:07:58;7.45;;;5.50;;
19940;SDS011;10132;50.864;5.176;2023-04-15T10:10:03;6.38;;;5.65;;
19940;SDS011;10132;50.864;5.176;2023-04-15T10:12:07;8.68;;;5.47;;
19940;SDS011;10132;50.864;5.176;2023-04-15T10:14:10;6.43;;;4.30;;
19940;SDS011;10132;50.864;5.176;2023-04-15T10:16:14;8.10;;;4.55;;
19940;SDS011;10132;50.864;5.176;2023-04-15T10:18:18;5.78;;;4.32;;
19940;SDS011;10132;50.864;5.176;2023-04-15T10:20:21;5.20;;;4.72;;
19940;SDS011;10132;50.864;5.176;2023-04-15T10:22:24;7.57;;;5.18;;
19940;SDS011;10132;50.864;5.176;2023-04-15T10:24:28;6.82;;;4.95;;
19940;SDS011;10132;50.864;5.176;2023-04-15T10:26:33;5.28;;;4.60;;
19940;SDS011;10132;50.864;5.176;2023-04-15T10:28:35;6.10;;;4.30;;
19940;SDS011;10132;50.864;5.176;2023-04-15T10:30:37;5.75;;;4.32;;
19940;SDS011;10132;50.864;5.176;2023-04-15T10:32:39;5.43;;;3.97;;
19940;SDS011;10132;50.864;5.176;2023-04-15T10:34:42;4.65;;;3.63;;
19940;SDS011;10132;50.864;5.176;2023-04-15T10:36:45;5.80;;;3.45;;
19940;SDS011;10132;50.864;5.176;2023-04-15T10:38:47;4.07;;;3.65;;
19940;SDS011;10132;50.864;5.176;2023-04-15T10:40:49;5.30;;;3.55;;
19940;SDS011;10132;50.864;5.176;2023-04-15T10:42:53;4.93;;;3.40;;
19940;SDS011;10132;50.864;5.176;2023-04-15T10:44:56;4.13;;;3.50;;
19940;SDS011;10132;50.864;5.176;2023-04-15T10:46:58;6.78;;;4.00;;
19940;SDS011;10132;50.864;5.176;2023-04-15T10:49:00;4.82;;;4.13;;
19940;SDS011;10132;50.864;5.176;2023-04-15T10:51:07;2.75;;;2.35;;
19940;SDS011;10132;50.864;5.176;2023-04-15T10:53:09;4.25;;;2.35;;
19940;SDS011;10132;50.864;5.176;2023-04-15T10:55:12;4.07;;;2.47;;
19940;SDS011;10132;50.864;5.176;2023-04-15T10:57:20;4.53;;;2.53;;
19940;SDS011;10132;50.864;5.176;2023-04-15T10:59:24;1.63;;;1.48;;
19940;SDS011;10132;50.864;5.176;2023-04-15T11:03:53;2.30;;;1.42;;
19940;SDS011;10132;50.864;5.176;2023-04-15T11:05:56;2.53;;;1.98;;
19940;SDS011;10132;50.864;5.176;2023-04-15T11:07:57;2.72;;;1.55;;
19940;SDS011;10132;50.864;5.176;2023-04-15T11:09:59;4.82;;;2.03;;
19940;SDS011;10132;50.864;5.176;2023-04-15T11:12:05;2.95;;;1.50;;
19940;SDS011;10132;50.864;5.176;2023-04-15T11:14:13;2.20;;;1.65;;
19940;SDS011;10132;50.864;5.176;2023-04-15T11:16:16;4.95;;;1.80;;
19940;SDS011;10132;50.864;5.176;2023-04-15T11:18:19;1.80;;;1.60;;
19940;SDS011;10132;50.864;5.176;2023-04-15T11:20:22;2.47;;;1.83;;
19940;SDS011;10132;50.864;5.176;2023-04-15T11:22:24;2.13;;;1.90;;
19940;SDS011;10132;50.864;5.176;2023-04-15T11:24:26;2.00;;;1.80;;
19940;SDS011;10132;50.864;5.176;2023-04-15T11:26:28;3.00;;;2.15;;
19940;SDS011;10132;50.864;5.176;2023-04-15T11:28:31;5.38;;;2.00;;
19940;SDS011;10132;50.864;5.176;2023-04-15T11:30:34;2.90;;;2.17;;
19940;SDS011;10132;50.864;5.176;2023-04-15T11:32:38;3.20;;;2.35;;
19940;SDS011;10132;50.864;5.176;2023-04-15T11:34:44;3.13;;;2.28;;
19940;SDS011;10132;50.864;5.176;2023-04-15T11:36:47;4.47;;;2.17;;
19940;SDS011;10132;50.864;5.176;2023-04-15T11:38:50;3.83;;;2.30;;
19940;SDS011;10132;50.864;5.176;2023-04-15T11:40:52;4.40;;;2.13;;
19940;SDS011;10132;50.864;5.176;2023-04-15T11:43:04;2.70;;;2.40;;
19940;SDS011;10132;50.864;5.176;2023-04-15T11:45:07;3.70;;;2.35;;
19940;SDS011;10132;50.864;5.176;2023-04-15T11:47:20;2.95;;;2.35;;
19940;SDS011;10132;50.864;5.176;2023-04-15T11:49:28;3.50;;;1.73;;
19940;SDS011;10132;50.864;5.176;2023-04-15T11:51:33;2.83;;;1.50;;
19940;SDS011;10132;50.864;5.176;2023-04-15T11:53:36;4.32;;;2.03;;
19940;SDS011;10132;50.864;5.176;2023-04-15T11:55:40;1.40;;;1.30;;
19940;SDS011;10132;50.864;5.176;2023-04-15T11:57:44;2.58;;;1.80;;
19940;SDS011;10132;50.864;5.176;2023-04-15T11:59:46;1.63;;;1.52;;
19940;SDS011;10132;50.864;5.176;2023-04-15T12:01:47;2.10;;;1.50;;
19940;SDS011;10132;50.864;5.176;2023-04-15T12:03:51;3.40;;;1.73;;
19940;SDS011;10132;50.864;5.176;2023-04-15T12:06:07;3.58;;;1.80;;
19940;SDS011;10132;50.864;5.176;2023-04-15T12:08:15;2.47;;;1.80;;
19940;SDS011;10132;50.864;5.176;2023-04-15T12:10:17;2.40;;;1.90;;
19940;SDS011;10132;50.864;5.176;2023-04-15T12:12:19;3.60;;;1.75;;
19940;SDS011;10132;50.864;5.176;2023-04-15T12:14:23;2.60;;;1.80;;
19940;SDS011;10132;50.864;5.176;2023-04-15T12:16:27;3.50;;;2.00;;
19940;SDS011;10132;50.864;5.176;2023-04-15T12:18:29;1.90;;;1.65;;
19940;SDS011;10132;50.864;5.176;2023-04-15T12:20:31;2.05;;;1.67;;
19940;SDS011;10132;50.864;5.176;2023-04-15T12:22:45;2.72;;;1.92;;